createdAt,value
2022-10-05T05:16:43.164Z,4.45
2022-10-05T05:19:21.058Z,6.35
2022-10-05T05:22:00.219Z,6.22
2022-10-05T05:24:41.341Z,5.78
2022-10-05T05:27:30.527Z,5.80
2022-10-05T05:30:23.215Z,5.85
2022-10-05T05:33:17.953Z,6.20
2022-10-05T05:35:59.610Z,6.50
2022-10-05T05:38:32.952Z,6.63
2022-10-05T05:41:04.034Z,5.70
2022-10-05T05:43:56.083Z,5.35
2022-10-05T05:47:01.912Z,5.47
2022-10-05T05:49:34.753Z,6.15
2022-10-05T05:52:06.296Z,6.13
2022-10-05T05:54:45.885Z,7.68
2022-10-05T05:57:48.843Z,7.75
2022-10-05T06:00:23.672Z,6.68
2022-10-05T06:03:22.645Z,4.85
2022-10-05T06:05:58.304Z,5.20
2022-10-05T06:09:08.429Z,7.00
2022-10-05T06:11:53.787Z,5.07
2022-10-05T06:14:47.963Z,4.80
2022-10-05T06:17:37.985Z,5.03
2022-10-05T06:20:25.689Z,4.63
2022-10-05T06:22:52.906Z,4.80
2022-10-05T06:25:43.670Z,5.57
2022-10-05T06:28:16.258Z,4.72
2022-10-05T06:31:09.379Z,4.43
2022-10-05T06:33:54.741Z,4.68
2022-10-05T06:36:41.152Z,4.85
2022-10-05T06:39:18.154Z,5.45
2022-10-05T06:41:57.193Z,5.32
2022-10-05T06:44:53.754Z,5.32
2022-10-05T06:48:05.211Z,5.35
2022-10-05T06:51:07.117Z,5.50
2022-10-05T06:54:19.683Z,4.95
2022-10-05T06:56:47.117Z,5.07
2022-10-05T06:59:50.217Z,5.35
2022-10-05T07:02:35.860Z,5.05
2022-10-05T07:05:28.850Z,4.85
2022-10-05T07:08:01.359Z,5.13
2022-10-05T07:10:32.276Z,6.60
2022-10-05T07:13:06.893Z,5.72
2022-10-05T07:18:40.805Z,5.32
2022-10-05T07:21:35.942Z,5.88
2022-10-05T07:24:27.389Z,4.53
2022-10-05T07:27:21.431Z,5.53
2022-10-05T07:30:07.575Z,5.38
2022-10-05T07:33:01.393Z,4.85
2022-10-05T07:36:02.678Z,4.60
2022-10-05T07:38:55.028Z,4.60
2022-10-05T07:41:25.220Z,4.22
2022-10-05T07:44:19.788Z,4.82
2022-10-05T07:47:27.467Z,6.68
2022-10-05T07:49:58.993Z,5.32
2022-10-05T07:52:34.675Z,5.60
2022-10-05T07:55:22.346Z,6.47
2022-10-05T07:58:31.916Z,6.05
2022-10-05T08:01:19.328Z,7.43
2022-10-05T08:03:56.654Z,5.95
2022-10-05T08:06:27.346Z,7.15
2022-10-05T08:09:21.913Z,8.45
2022-10-05T08:11:53.616Z,8.48
2022-10-05T09:07:10.998Z,7.15
2022-10-05T09:09:43.877Z,8.43
2022-10-05T09:12:44.099Z,8.83
2022-10-05T09:15:31.445Z,7.35
2022-10-05T09:18:37.723Z,7.03
2022-10-05T09:21:15.915Z,9.27
2022-10-05T12:19:28.738Z,2.80
2022-10-05T12:22:06.897Z,3.28
2022-10-05T12:24:37.201Z,3.65
2022-10-05T12:27:17.177Z,3.22
2022-10-05T12:30:18.596Z,3.63
2022-10-05T12:44:52.955Z,2.17
2022-10-05T12:47:32.959Z,3.33
2022-10-05T13:39:28.589Z,2.35
2022-10-05T13:42:02.079Z,2.85
2022-10-05T13:52:49.463Z,2.60
2022-10-05T13:55:35.222Z,2.40
2022-10-05T13:58:13.038Z,2.65
2022-10-05T14:00:47.245Z,2.55
2022-10-05T14:03:39.579Z,2.75
2022-10-05T14:06:30.913Z,3.38
2022-10-05T14:09:00.937Z,2.92
2022-10-05T14:11:35.058Z,3.28
2022-10-05T14:14:25.565Z,3.08
2022-10-05T15:24:58.357Z,3.42
2022-10-05T15:34:33.061Z,3.80
2022-10-05T15:51:27.962Z,5.70
2022-10-05T15:54:46.306Z,4.15
2022-10-05T15:57:45.464Z,4.28
2022-10-05T16:00:21.051Z,5.65
2022-10-05T16:03:09.700Z,3.83
2022-10-05T16:06:09.727Z,3.28
2022-10-05T16:08:58.643Z,3.30
2022-10-05T16:12:10.289Z,2.38
2022-10-05T16:15:00.217Z,3.28
2022-10-05T16:17:41.692Z,3.30
2022-10-05T16:20:24.212Z,2.80
2022-10-05T16:23:06.625Z,3.40
2022-10-05T16:25:40.801Z,3.20
2022-10-05T16:33:02.830Z,3.65
2022-10-05T16:56:45.782Z,4.30
2022-10-05T16:59:25.662Z,4.05
2022-10-05T17:11:27.050Z,3.33
2022-10-05T17:14:16.680Z,3.08
2022-10-05T17:26:54.992Z,2.95
2022-10-05T17:29:30.694Z,3.08
2022-10-05T17:32:10.143Z,3.58
2022-10-05T17:34:58.455Z,3.25
2022-10-05T17:37:29.150Z,3.42
2022-10-05T17:39:56.754Z,3.05
2022-10-05T17:42:29.874Z,3.55
2022-10-05T17:45:17.464Z,3.25
2022-10-05T17:48:14.720Z,3.20
2022-10-05T17:51:07.224Z,4.32
2022-10-05T17:53:56.826Z,3.00
2022-10-05T17:56:26.894Z,3.30
2022-10-05T17:59:04.683Z,3.95
2022-10-05T18:04:45.561Z,8.93
2022-10-05T18:15:26.024Z,5.53
2022-10-05T18:33:34.781Z,3.67
2022-10-05T18:36:27.591Z,3.75
2022-10-05T18:39:04.530Z,4.10
2022-10-05T18:41:46.868Z,4.13
2022-10-05T18:50:13.079Z,3.80
2022-10-05T18:53:22.639Z,4.45
2022-10-05T18:55:59.190Z,4.40
2022-10-05T18:58:30.914Z,4.20
2022-10-05T19:03:56.145Z,4.65
2022-10-05T19:07:02.845Z,4.05
2022-10-05T19:12:45.055Z,5.05
2022-10-05T19:15:19.401Z,3.72
2022-10-05T19:24:16.349Z,3.65
2022-10-05T19:30:25.466Z,3.75
2022-10-05T19:33:17.807Z,4.40
2022-10-05T19:36:23.753Z,4.75
2022-10-05T19:39:13.972Z,3.25
2022-10-05T19:47:41.533Z,3.70
2022-10-05T23:33:56.506Z,2.90
2022-10-05T23:36:39.789Z,2.75
2022-10-05T23:42:07.949Z,2.92
2022-10-05T23:44:42.995Z,2.80
2022-10-05T23:47:12.948Z,2.90
2022-10-05T23:49:41.541Z,2.67
2022-10-05T23:52:12.859Z,2.70
2022-10-05T23:54:44.684Z,2.80
2022-10-05T23:57:21.774Z,2.88
